sensor_id;sensor_type;location;lat;lon;timestamp;P1;durP1;ratioP1;P2;durP2;ratioP2
62832;SDS011;48891;49.220;6.920;2023-03-01T00:01:09;45.28;;;33.80;;
62832;SDS011;48891;49.220;6.920;2023-03-01T00:03:35;50.58;;;33.78;;
62832;SDS011;48891;49.220;6.920;2023-03-01T00:06:01;48.95;;;34.50;;
62832;SDS011;48891;49.220;6.920;2023-03-01T00:08:27;46.55;;;33.85;;
62832;SDS011;48891;49.220;6.920;2023-03-01T00:11:00;49.05;;;34.35;;
62832;SDS011;48891;49.220;6.920;2023-03-01T00:13:37;44.40;;;32.47;;
62832;SDS011;48891;49.220;6.920;2023-03-01T00:16:03;48.08;;;34.10;;
62832;SDS011;48891;49.220;6.920;2023-03-01T00:18:30;48.00;;;33.33;;
62832;SDS011;48891;49.220;6.920;2023-03-01T00:20:55;48.22;;;33.75;;
62832;SDS011;48891;49.220;6.920;2023-03-01T00:23:21;44.30;;;31.88;;
62832;SDS011;48891;49.220;6.920;2023-03-01T00:25:47;45.47;;;32.30;;
62832;SDS011;48891;49.220;6.920;2023-03-01T00:28:13;52.35;;;35.13;;
62832;SDS011;48891;49.220;6.920;2023-03-01T00:30:38;46.20;;;32.63;;
62832;SDS011;48891;49.220;6.920;2023-03-01T00:33:03;43.08;;;31.83;;
62832;SDS011;48891;49.220;6.920;2023-03-01T00:35:29;48.05;;;33.63;;
62832;SDS011;48891;49.220;6.920;2023-03-01T00:37:54;48.42;;;32.95;;
62832;SDS011;48891;49.220;6.920;2023-03-01T00:40:19;46.92;;;33.17;;
62832;SDS011;48891;49.220;6.920;2023-03-01T00:42:44;49.78;;;33.75;;
62832;SDS011;48891;49.220;6.920;2023-03-01T00:45:10;48.58;;;33.40;;
62832;SDS011;48891;49.220;6.920;2023-03-01T00:47:35;48.03;;;32.97;;
62832;SDS011;48891;49.220;6.920;2023-03-01T00:50:00;47.75;;;32.83;;
62832;SDS011;48891;49.220;6.920;2023-03-01T00:52:26;46.70;;;33.53;;
62832;SDS011;48891;49.220;6.920;2023-03-01T00:54:52;47.53;;;33.55;;
62832;SDS011;48891;49.220;6.920;2023-03-01T00:57:18;48.95;;;33.17;;
62832;SDS011;48891;49.220;6.920;2023-03-01T00:59:43;44.72;;;32.08;;
62832;SDS011;48891;49.220;6.920;2023-03-01T01:02:08;47.83;;;33.22;;
62832;SDS011;48891;49.220;6.920;2023-03-01T01:04:33;47.03;;;32.65;;
62832;SDS011;48891;49.220;6.920;2023-03-01T01:06:59;47.67;;;31.83;;
62832;SDS011;48891;49.220;6.920;2023-03-01T01:09:24;49.53;;;33.25;;
62832;SDS011;48891;49.220;6.920;2023-03-01T01:11:50;47.22;;;31.73;;
62832;SDS011;48891;49.220;6.920;2023-03-01T01:14:16;45.53;;;32.55;;
62832;SDS011;48891;49.220;6.920;2023-03-01T01:16:42;44.30;;;32.10;;
62832;SDS011;48891;49.220;6.920;2023-03-01T01:19:08;47.67;;;33.63;;
62832;SDS011;48891;49.220;6.920;2023-03-01T01:21:35;47.47;;;33.03;;
62832;SDS011;48891;49.220;6.920;2023-03-01T01:24:02;46.20;;;32.67;;
62832;SDS011;48891;49.220;6.920;2023-03-01T01:26:29;51.13;;;33.05;;
62832;SDS011;48891;49.220;6.920;2023-03-01T01:28:57;46.97;;;32.03;;
62832;SDS011;48891;49.220;6.920;2023-03-01T01:31:24;46.85;;;32.10;;
62832;SDS011;48891;49.220;6.920;2023-03-01T01:33:50;46.03;;;31.92;;
62832;SDS011;48891;49.220;6.920;2023-03-01T01:36:16;46.75;;;32.45;;
62832;SDS011;48891;49.220;6.920;2023-03-01T01:38:42;46.67;;;32.58;;
62832;SDS011;48891;49.220;6.920;2023-03-01T01:41:08;51.03;;;34.95;;
62832;SDS011;48891;49.220;6.920;2023-03-01T01:43:35;44.95;;;32.17;;
62832;SDS011;48891;49.220;6.920;2023-03-01T01:46:04;45.45;;;32.00;;
62832;SDS011;48891;49.220;6.920;2023-03-01T01:48:54;47.47;;;33.25;;
62832;SDS011;48891;49.220;6.920;2023-03-01T01:51:30;49.88;;;33.33;;
62832;SDS011;48891;49.220;6.920;2023-03-01T01:54:00;50.28;;;33.38;;
62832;SDS011;48891;49.220;6.920;2023-03-01T01:56:26;49.22;;;33.28;;
62832;SDS011;48891;49.220;6.920;2023-03-01T01:58:53;48.95;;;32.45;;
62832;SDS011;48891;49.220;6.920;2023-03-01T02:01:20;45.90;;;31.92;;
62832;SDS011;48891;49.220;6.920;2023-03-01T02:03:45;45.40;;;31.80;;
62832;SDS011;48891;49.220;6.920;2023-03-01T02:08:47;47.88;;;32.92;;
62832;SDS011;48891;49.220;6.920;2023-03-01T02:11:15;48.10;;;31.92;;
62832;SDS011;48891;49.220;6.920;2023-03-01T02:13:42;47.58;;;32.60;;
62832;SDS011;48891;49.220;6.920;2023-03-01T02:16:08;48.80;;;32.97;;
62832;SDS011;48891;49.220;6.920;2023-03-01T02:18:34;46.13;;;32.47;;
62832;SDS011;48891;49.220;6.920;2023-03-01T02:23:48;43.53;;;30.48;;
62832;SDS011;48891;49.220;6.920;2023-03-01T02:26:34;43.63;;;32.45;;
62832;SDS011;48891;49.220;6.920;2023-03-01T02:29:01;44.50;;;30.30;;
62832;SDS011;48891;49.220;6.920;2023-03-01T02:31:26;47.88;;;32.33;;
62832;SDS011;48891;49.220;6.920;2023-03-01T02:33:51;45.47;;;31.50;;
62832;SDS011;48891;49.220;6.920;2023-03-01T02:36:22;48.55;;;32.92;;
62832;SDS011;48891;49.220;6.920;2023-03-01T02:38:51;45.10;;;32.00;;
62832;SDS011;48891;49.220;6.920;2023-03-01T02:41:19;46.72;;;32.20;;
62832;SDS011;48891;49.220;6.920;2023-03-01T02:43:46;48.60;;;32.40;;
62832;SDS011;48891;49.220;6.920;2023-03-01T02:46:15;50.17;;;32.20;;
62832;SDS011;48891;49.220;6.920;2023-03-01T02:48:47;45.22;;;30.98;;
62832;SDS011;48891;49.220;6.920;2023-03-01T02:54:01;48.47;;;32.30;;
62832;SDS011;48891;49.220;6.920;2023-03-01T02:56:38;47.22;;;32.53;;
62832;SDS011;48891;49.220;6.920;2023-03-01T02:59:05;45.60;;;31.67;;
62832;SDS011;48891;49.220;6.920;2023-03-01T03:01:31;47.08;;;31.45;;
62832;SDS011;48891;49.220;6.920;2023-03-01T03:03:56;47.92;;;31.00;;
62832;SDS011;48891;49.220;6.920;2023-03-01T03:06:21;48.75;;;31.90;;
62832;SDS011;48891;49.220;6.920;2023-03-01T03:08:47;48.08;;;32.03;;
62832;SDS011;48891;49.220;6.920;2023-03-01T03:11:12;47.50;;;32.33;;
62832;SDS011;48891;49.220;6.920;2023-03-01T03:13:37;46.22;;;31.55;;
62832;SDS011;48891;49.220;6.920;2023-03-01T03:16:02;47.08;;;32.78;;
62832;SDS011;48891;49.220;6.920;2023-03-01T03:18:28;47.35;;;32.50;;
62832;SDS011;48891;49.220;6.920;2023-03-01T03:20:53;45.97;;;32.72;;
62832;SDS011;48891;49.220;6.920;2023-03-01T03:23:20;48.80;;;32.67;;
62832;SDS011;48891;49.220;6.920;2023-03-01T03:25:47;45.97;;;32.47;;
62832;SDS011;48891;49.220;6.920;2023-03-01T03:28:14;46.10;;;30.08;;
62832;SDS011;48891;49.220;6.920;2023-03-01T03:30:40;45.70;;;29.73;;
62832;SDS011;48891;49.220;6.920;2023-03-01T03:33:06;46.05;;;31.15;;
62832;SDS011;48891;49.220;6.920;2023-03-01T03:35:33;46.28;;;32.05;;
62832;SDS011;48891;49.220;6.920;2023-03-01T03:38:05;44.75;;;30.55;;
62832;SDS011;48891;49.220;6.920;2023-03-01T03:40:33;45.60;;;31.35;;
62832;SDS011;48891;49.220;6.920;2023-03-01T03:43:06;48.13;;;32.10;;
62832;SDS011;48891;49.220;6.920;2023-03-01T03:45:34;47.42;;;31.17;;
62832;SDS011;48891;49.220;6.920;2023-03-01T03:48:00;48.15;;;31.70;;
62832;SDS011;48891;49.220;6.920;2023-03-01T03:50:26;45.42;;;30.90;;
62832;SDS011;48891;49.220;6.920;2023-03-01T03:52:51;45.00;;;31.52;;
62832;SDS011;48891;49.220;6.920;2023-03-01T03:55:17;49.38;;;33.05;;
62832;SDS011;48891;49.220;6.920;2023-03-01T03:57:42;46.85;;;31.63;;
62832;SDS011;48891;49.220;6.920;2023-03-01T04:00:11;46.65;;;31.30;;
62832;SDS011;48891;49.220;6.920;2023-03-01T04:02:37;45.25;;;30.63;;
62832;SDS011;48891;49.220;6.920;2023-03-01T04:05:02;46.60;;;31.95;;
62832;SDS011;48891;49.220;6.920;2023-03-01T04:07:27;47.13;;;32.20;;
62832;SDS011;48891;49.220;6.920;2023-03-01T04:09:53;48.63;;;31.38;;
62832;SDS011;48891;49.220;6.920;2023-03-01T04:12:18;49.28;;;32.53;;
62832;SDS011;48891;49.220;6.920;2023-03-01T04:14:44;48.65;;;31.90;;
62832;SDS011;48891;49.220;6.920;2023-03-01T04:17:09;50.03;;;33.33;;
62832;SDS011;48891;49.220;6.920;2023-03-01T04:19:35;45.97;;;32.42;;
62832;SDS011;48891;49.220;6.920;2023-03-01T04:22:00;51.05;;;32.90;;
62832;SDS011;48891;49.220;6.920;2023-03-01T04:24:25;47.88;;;32.50;;
62832;SDS011;48891;49.220;6.920;2023-03-01T04:26:50;48.17;;;32.63;;
62832;SDS011;48891;49.220;6.920;2023-03-01T04:29:16;46.90;;;32.67;;
62832;SDS011;48891;49.220;6.920;2023-03-01T04:31:41;47.13;;;32.83;;
62832;SDS011;48891;49.220;6.920;2023-03-01T04:34:06;48.60;;;32.95;;
62832;SDS011;48891;49.220;6.920;2023-03-01T04:36:31;50.20;;;33.30;;
62832;SDS011;48891;49.220;6.920;2023-03-01T04:38:57;51.05;;;33.00;;
62832;SDS011;48891;49.220;6.920;2023-03-01T04:41:23;52.47;;;33.42;;
62832;SDS011;48891;49.220;6.920;2023-03-01T04:43:49;45.38;;;32.13;;
62832;SDS011;48891;49.220;6.920;2023-03-01T04:46:16;46.70;;;33.63;;
62832;SDS011;48891;49.220;6.920;2023-03-01T04:48:43;45.85;;;32.10;;
62832;SDS011;48891;49.220;6.920;2023-03-01T04:51:09;47.83;;;33.10;;
62832;SDS011;48891;49.220;6.920;2023-03-01T04:53:35;47.97;;;32.60;;
62832;SDS011;48891;49.220;6.920;2023-03-01T04:56:00;47.25;;;33.40;;
62832;SDS011;48891;49.220;6.920;2023-03-01T04:58:26;48.60;;;32.75;;
62832;SDS011;48891;49.220;6.920;2023-03-01T05:00:52;46.70;;;32.55;;
62832;SDS011;48891;49.220;6.920;2023-03-01T05:03:18;43.42;;;30.60;;
62832;SDS011;48891;49.220;6.920;2023-03-01T05:05:44;48.35;;;32.50;;
62832;SDS011;48891;49.220;6.920;2023-03-01T05:08:11;48.20;;;31.50;;
62832;SDS011;48891;49.220;6.920;2023-03-01T05:10:37;46.40;;;32.63;;
62832;SDS011;48891;49.220;6.920;2023-03-01T05:13:03;45.05;;;30.70;;
62832;SDS011;48891;49.220;6.920;2023-03-01T05:15:29;48.33;;;33.17;;
62832;SDS011;48891;49.220;6.920;2023-03-01T05:17:57;47.47;;;31.90;;
62832;SDS011;48891;49.220;6.920;2023-03-01T05:20:23;46.93;;;30.53;;
62832;SDS011;48891;49.220;6.920;2023-03-01T05:22:50;49.85;;;32.58;;
62832;SDS011;48891;49.220;6.920;2023-03-01T05:25:16;51.38;;;32.85;;
62832;SDS011;48891;49.220;6.920;2023-03-01T05:27:42;47.08;;;31.60;;
62832;SDS011;48891;49.220;6.920;2023-03-01T05:30:08;48.78;;;32.42;;
62832;SDS011;48891;49.220;6.920;2023-03-01T05:32:34;48.53;;;32.40;;
62832;SDS011;48891;49.220;6.920;2023-03-01T05:34:59;47.83;;;31.20;;
62832;SDS011;48891;49.220;6.920;2023-03-01T05:37:24;50.50;;;32.35;;
62832;SDS011;48891;49.220;6.920;2023-03-01T05:39:49;46.28;;;31.92;;
62832;SDS011;48891;49.220;6.920;2023-03-01T05:42:14;48.20;;;32.58;;
62832;SDS011;48891;49.220;6.920;2023-03-01T05:44:40;47.45;;;33.33;;
62832;SDS011;48891;49.220;6.920;2023-03-01T05:47:05;48.03;;;31.73;;
62832;SDS011;48891;49.220;6.920;2023-03-01T05:49:31;45.50;;;31.27;;
62832;SDS011;48891;49.220;6.920;2023-03-01T05:51:56;48.38;;;31.25;;
62832;SDS011;48891;49.220;6.920;2023-03-01T05:54:21;46.30;;;31.70;;
62832;SDS011;48891;49.220;6.920;2023-03-01T05:56:47;49.95;;;32.53;;
62832;SDS011;48891;49.220;6.920;2023-03-01T05:59:12;48.13;;;32.00;;
62832;SDS011;48891;49.220;6.920;2023-03-01T06:01:37;49.50;;;32.55;;
62832;SDS011;48891;49.220;6.920;2023-03-01T06:04:03;46.20;;;31.55;;
62832;SDS011;48891;49.220;6.920;2023-03-01T06:06:29;46.80;;;31.90;;
62832;SDS011;48891;49.220;6.920;2023-03-01T06:08:55;46.60;;;31.50;;
62832;SDS011;48891;49.220;6.920;2023-03-01T06:11:20;47.15;;;31.17;;
62832;SDS011;48891;49.220;6.920;2023-03-01T06:13:46;46.53;;;30.58;;
62832;SDS011;48891;49.220;6.920;2023-03-01T06:16:12;48.47;;;32.13;;
62832;SDS011;48891;49.220;6.920;2023-03-01T06:18:38;49.03;;;32.28;;
62832;SDS011;48891;49.220;6.920;2023-03-01T06:21:04;47.42;;;31.00;;
62832;SDS011;48891;49.220;6.920;2023-03-01T06:23:30;50.95;;;31.13;;
62832;SDS011;48891;49.220;6.920;2023-03-01T06:25:56;50.42;;;30.50;;
62832;SDS011;48891;49.220;6.920;2023-03-01T06:28:21;48.85;;;31.13;;
62832;SDS011;48891;49.220;6.920;2023-03-01T06:30:47;47.30;;;30.33;;
62832;SDS011;48891;49.220;6.920;2023-03-01T06:33:13;46.25;;;31.08;;
62832;SDS011;48891;49.220;6.920;2023-03-01T06:35:39;46.03;;;31.00;;
62832;SDS011;48891;49.220;6.920;2023-03-01T06:38:04;45.60;;;28.80;;
62832;SDS011;48891;49.220;6.920;2023-03-01T06:40:30;47.17;;;30.15;;
62832;SDS011;48891;49.220;6.920;2023-03-01T06:42:56;46.15;;;29.83;;
62832;SDS011;48891;49.220;6.920;2023-03-01T06:45:22;50.03;;;30.08;;
62832;SDS011;48891;49.220;6.920;2023-03-01T06:47:48;42.22;;;28.88;;
62832;SDS011;48891;49.220;6.920;2023-03-01T06:50:14;47.05;;;29.98;;
62832;SDS011;48891;49.220;6.920;2023-03-01T06:52:40;42.25;;;27.85;;
62832;SDS011;48891;49.220;6.920;2023-03-01T06:55:05;43.50;;;28.95;;
62832;SDS011;48891;49.220;6.920;2023-03-01T06:57:31;42.90;;;28.65;;
62832;SDS011;48891;49.220;6.920;2023-03-01T06:59:56;44.15;;;29.13;;
62832;SDS011;48891;49.220;6.920;2023-03-01T07:02:22;42.67;;;28.90;;
62832;SDS011;48891;49.220;6.920;2023-03-01T07:04:51;43.92;;;28.80;;
62832;SDS011;48891;49.220;6.920;2023-03-01T07:07:17;42.88;;;27.75;;
62832;SDS011;48891;49.220;6.920;2023-03-01T07:09:43;41.08;;;27.75;;
62832;SDS011;48891;49.220;6.920;2023-03-01T07:12:09;43.10;;;27.90;;
62832;SDS011;48891;49.220;6.920;2023-03-01T07:14:35;43.60;;;29.05;;
62832;SDS011;48891;49.220;6.920;2023-03-01T07:17:00;42.65;;;28.42;;
62832;SDS011;48891;49.220;6.920;2023-03-01T07:19:26;43.70;;;28.55;;
62832;SDS011;48891;49.220;6.920;2023-03-01T07:21:51;44.58;;;29.50;;
62832;SDS011;48891;49.220;6.920;2023-03-01T07:24:16;43.17;;;28.45;;
62832;SDS011;48891;49.220;6.920;2023-03-01T07:26:42;43.67;;;28.30;;
62832;SDS011;48891;49.220;6.920;2023-03-01T07:29:07;43.25;;;27.38;;
62832;SDS011;48891;49.220;6.920;2023-03-01T07:31:34;43.78;;;27.40;;
62832;SDS011;48891;49.220;6.920;2023-03-01T07:34:00;45.92;;;29.30;;
62832;SDS011;48891;49.220;6.920;2023-03-01T07:36:25;42.42;;;27.52;;
62832;SDS011;48891;49.220;6.920;2023-03-01T07:38:50;40.00;;;27.10;;
62832;SDS011;48891;49.220;6.920;2023-03-01T07:41:16;40.92;;;28.15;;
62832;SDS011;48891;49.220;6.920;2023-03-01T07:43:41;41.55;;;28.13;;
62832;SDS011;48891;49.220;6.920;2023-03-01T07:46:06;42.00;;;27.05;;
62832;SDS011;48891;49.220;6.920;2023-03-01T07:48:32;41.22;;;27.17;;
62832;SDS011;48891;49.220;6.920;2023-03-01T07:50:59;40.47;;;27.10;;
62832;SDS011;48891;49.220;6.920;2023-03-01T07:53:25;44.67;;;28.75;;
62832;SDS011;48891;49.220;6.920;2023-03-01T07:55:59;40.45;;;26.65;;
62832;SDS011;48891;49.220;6.920;2023-03-01T07:58:27;43.42;;;27.38;;
62832;SDS011;48891;49.220;6.920;2023-03-01T08:00:53;42.22;;;26.55;;
62832;SDS011;48891;49.220;6.920;2023-03-01T08:03:18;43.33;;;28.25;;
62832;SDS011;48891;49.220;6.920;2023-03-01T08:05:43;41.42;;;27.70;;
62832;SDS011;48891;49.220;6.920;2023-03-01T08:08:08;42.65;;;25.95;;
62832;SDS011;48891;49.220;6.920;2023-03-01T08:10:36;39.13;;;26.77;;
62832;SDS011;48891;49.220;6.920;2023-03-01T08:13:01;44.88;;;28.20;;
62832;SDS011;48891;49.220;6.920;2023-03-01T08:15:27;40.08;;;26.67;;
62832;SDS011;48891;49.220;6.920;2023-03-01T08:17:52;38.67;;;25.95;;
62832;SDS011;48891;49.220;6.920;2023-03-01T08:20:18;38.22;;;25.98;;
62832;SDS011;48891;49.220;6.920;2023-03-01T08:22:43;40.08;;;25.60;;
62832;SDS011;48891;49.220;6.920;2023-03-01T08:25:08;38.90;;;25.20;;
62832;SDS011;48891;49.220;6.920;2023-03-01T08:27:34;38.53;;;26.05;;
62832;SDS011;48891;49.220;6.920;2023-03-01T08:29:59;36.47;;;26.15;;
62832;SDS011;48891;49.220;6.920;2023-03-01T08:32:24;40.53;;;25.92;;
62832;SDS011;48891;49.220;6.920;2023-03-01T08:34:50;39.63;;;25.88;;
62832;SDS011;48891;49.220;6.920;2023-03-01T08:37:15;40.47;;;25.13;;
62832;SDS011;48891;49.220;6.920;2023-03-01T08:39:40;36.92;;;24.52;;
62832;SDS011;48891;49.220;6.920;2023-03-01T08:42:05;40.65;;;24.80;;
62832;SDS011;48891;49.220;6.920;2023-03-01T08:44:31;37.63;;;24.13;;
62832;SDS011;48891;49.220;6.920;2023-03-01T08:46:56;38.60;;;25.60;;
62832;SDS011;48891;49.220;6.920;2023-03-01T08:49:21;38.40;;;24.33;;
62832;SDS011;48891;49.220;6.920;2023-03-01T08:51:47;36.17;;;24.50;;
62832;SDS011;48891;49.220;6.920;2023-03-01T08:54:13;36.65;;;24.23;;
62832;SDS011;48891;49.220;6.920;2023-03-01T08:56:42;35.78;;;24.65;;
62832;SDS011;48891;49.220;6.920;2023-03-01T08:59:07;37.03;;;23.55;;
62832;SDS011;48891;49.220;6.920;2023-03-01T09:01:34;38.10;;;24.55;;
62832;SDS011;48891;49.220;6.920;2023-03-01T09:03:59;39.38;;;24.77;;
62832;SDS011;48891;49.220;6.920;2023-03-01T09:06:25;37.38;;;24.88;;
62832;SDS011;48891;49.220;6.920;2023-03-01T09:08:50;37.53;;;24.33;;
62832;SDS011;48891;49.220;6.920;2023-03-01T09:11:18;34.88;;;23.02;;
62832;SDS011;48891;49.220;6.920;2023-03-01T09:13:46;37.47;;;23.63;;
62832;SDS011;48891;49.220;6.920;2023-03-01T09:16:13;35.17;;;23.30;;
62832;SDS011;48891;49.220;6.920;2023-03-01T09:18:39;35.10;;;23.35;;
62832;SDS011;48891;49.220;6.920;2023-03-01T09:21:09;37.78;;;23.63;;
62832;SDS011;48891;49.220;6.920;2023-03-01T09:23:37;35.47;;;23.92;;
62832;SDS011;48891;49.220;6.920;2023-03-01T09:26:05;35.20;;;23.15;;
62832;SDS011;48891;49.220;6.920;2023-03-01T09:28:34;32.00;;;21.70;;
62832;SDS011;48891;49.220;6.920;2023-03-01T09:31:00;35.50;;;22.70;;
62832;SDS011;48891;49.220;6.920;2023-03-01T09:33:27;34.00;;;22.17;;
62832;SDS011;48891;49.220;6.920;2023-03-01T09:35:57;33.95;;;23.00;;
62832;SDS011;48891;49.220;6.920;2023-03-01T09:38:24;35.88;;;23.42;;
62832;SDS011;48891;49.220;6.920;2023-03-01T09:40:49;35.95;;;22.70;;
62832;SDS011;48891;49.220;6.920;2023-03-01T09:43:18;34.95;;;23.15;;
62832;SDS011;48891;49.220;6.920;2023-03-01T09:46:06;36.70;;;22.80;;
62832;SDS011;48891;49.220;6.920;2023-03-01T09:48:41;36.25;;;23.65;;
62832;SDS011;48891;49.220;6.920;2023-03-01T09:51:17;36.25;;;22.08;;
62832;SDS011;48891;49.220;6.920;2023-03-01T09:53:48;33.65;;;22.05;;
62832;SDS011;48891;49.220;6.920;2023-03-01T09:56:19;31.65;;;21.27;;
62832;SDS011;48891;49.220;6.920;2023-03-01T09:58:48;31.65;;;22.23;;
62832;SDS011;48891;49.220;6.920;2023-03-01T10:04:38;33.00;;;22.42;;
62832;SDS011;48891;49.220;6.920;2023-03-01T10:09:38;34.28;;;22.35;;
62832;SDS011;48891;49.220;6.920;2023-03-01T10:15:16;33.13;;;22.08;;
62832;SDS011;48891;49.220;6.920;2023-03-01T10:17:46;32.60;;;22.10;;
62832;SDS011;48891;49.220;6.920;2023-03-01T10:22:41;34.27;;;22.13;;
62832;SDS011;48891;49.220;6.920;2023-03-01T10:25:06;31.83;;;21.10;;
62832;SDS011;48891;49.220;6.920;2023-03-01T10:27:41;34.90;;;21.85;;
62832;SDS011;48891;49.220;6.920;2023-03-01T10:30:19;30.05;;;20.73;;
62832;SDS011;48891;49.220;6.920;2023-03-01T10:32:48;32.47;;;21.48;;
62832;SDS011;48891;49.220;6.920;2023-03-01T10:37:55;31.27;;;21.13;;
62832;SDS011;48891;49.220;6.920;2023-03-01T10:40:22;32.53;;;21.77;;
62832;SDS011;48891;49.220;6.920;2023-03-01T10:42:48;33.33;;;21.58;;
62832;SDS011;48891;49.220;6.920;2023-03-01T10:45:29;33.05;;;22.02;;
62832;SDS011;48891;49.220;6.920;2023-03-01T10:50:46;30.13;;;21.60;;
62832;SDS011;48891;49.220;6.920;2023-03-01T10:53:20;32.17;;;22.02;;
62832;SDS011;48891;49.220;6.920;2023-03-01T10:55:46;28.90;;;19.73;;
62832;SDS011;48891;49.220;6.920;2023-03-01T11:00:52;31.27;;;21.83;;
62832;SDS011;48891;49.220;6.920;2023-03-01T11:03:23;31.65;;;20.83;;
62832;SDS011;48891;49.220;6.920;2023-03-01T11:05:54;31.77;;;21.20;;
62832;SDS011;48891;49.220;6.920;2023-03-01T11:11:06;30.23;;;20.10;;
62832;SDS011;48891;49.220;6.920;2023-03-01T11:13:34;30.48;;;20.90;;
62832;SDS011;48891;49.220;6.920;2023-03-01T11:16:01;31.20;;;21.50;;
62832;SDS011;48891;49.220;6.920;2023-03-01T11:18:30;35.28;;;22.92;;
62832;SDS011;48891;49.220;6.920;2023-03-01T11:20:56;31.50;;;21.45;;
62832;SDS011;48891;49.220;6.920;2023-03-01T11:23:24;31.92;;;22.10;;
62832;SDS011;48891;49.220;6.920;2023-03-01T11:28:23;30.08;;;21.33;;
62832;SDS011;48891;49.220;6.920;2023-03-01T11:31:02;30.58;;;21.85;;
62832;SDS011;48891;49.220;6.920;2023-03-01T11:36:11;30.02;;;20.65;;
62832;SDS011;48891;49.220;6.920;2023-03-01T11:38:44;29.35;;;21.23;;
62832;SDS011;48891;49.220;6.920;2023-03-01T11:41:13;31.45;;;21.65;;
62832;SDS011;48891;49.220;6.920;2023-03-01T11:43:45;33.03;;;21.90;;
62832;SDS011;48891;49.220;6.920;2023-03-01T11:46:30;30.15;;;20.70;;
62832;SDS011;48891;49.220;6.920;2023-03-01T11:51:24;29.60;;;20.23;;
62832;SDS011;48891;49.220;6.920;2023-03-01T11:53:58;30.02;;;20.63;;
62832;SDS011;48891;49.220;6.920;2023-03-01T11:56:41;29.55;;;20.52;;
62832;SDS011;48891;49.220;6.920;2023-03-01T11:59:19;30.02;;;21.33;;
62832;SDS011;48891;49.220;6.920;2023-03-01T12:02:16;33.20;;;21.33;;
62832;SDS011;48891;49.220;6.920;2023-03-01T12:05:16;28.20;;;20.35;;
62832;SDS011;48891;49.220;6.920;2023-03-01T12:08:10;28.67;;;19.55;;
62832;SDS011;48891;49.220;6.920;2023-03-01T12:10:52;28.85;;;20.08;;
62832;SDS011;48891;49.220;6.920;2023-03-01T12:13:40;28.52;;;20.95;;
62832;SDS011;48891;49.220;6.920;2023-03-01T12:16:13;29.17;;;20.10;;
62832;SDS011;48891;49.220;6.920;2023-03-01T12:27:19;28.45;;;19.92;;
62832;SDS011;48891;49.220;6.920;2023-03-01T12:30:16;28.40;;;20.50;;
62832;SDS011;48891;49.220;6.920;2023-03-01T12:38:13;26.63;;;19.27;;
62832;SDS011;48891;49.220;6.920;2023-03-01T12:43:36;28.20;;;20.20;;
62832;SDS011;48891;49.220;6.920;2023-03-01T12:51:59;29.85;;;20.17;;
62832;SDS011;48891;49.220;6.920;2023-03-01T12:54:31;27.60;;;19.55;;
62832;SDS011;48891;49.220;6.920;2023-03-01T12:57:02;26.55;;;19.27;;
62832;SDS011;48891;49.220;6.920;2023-03-01T12:59:42;26.50;;;19.02;;
62832;SDS011;48891;49.220;6.920;2023-03-01T13:02:33;26.85;;;19.42;;
62832;SDS011;48891;49.220;6.920;2023-03-01T13:05:24;27.33;;;18.23;;
62832;SDS011;48891;49.220;6.920;2023-03-01T13:10:55;25.98;;;18.50;;
62832;SDS011;48891;49.220;6.920;2023-03-01T13:13:24;27.30;;;19.33;;
62832;SDS011;48891;49.220;6.920;2023-03-01T13:15:51;24.77;;;18.33;;
62832;SDS011;48891;49.220;6.920;2023-03-01T13:26:05;24.95;;;18.65;;
62832;SDS011;48891;49.220;6.920;2023-03-01T13:30:56;24.17;;;19.33;;
62832;SDS011;48891;49.220;6.920;2023-03-01T13:35:53;23.38;;;18.05;;
62832;SDS011;48891;49.220;6.920;2023-03-01T13:44:13;24.98;;;17.67;;
62832;SDS011;48891;49.220;6.920;2023-03-01T13:46:48;22.98;;;17.88;;
62832;SDS011;48891;49.220;6.920;2023-03-01T13:49:16;24.58;;;17.08;;
62832;SDS011;48891;49.220;6.920;2023-03-01T13:51:47;23.95;;;18.08;;
62832;SDS011;48891;49.220;6.920;2023-03-01T13:54:15;24.25;;;17.73;;
62832;SDS011;48891;49.220;6.920;2023-03-01T13:56:44;24.83;;;18.08;;
62832;SDS011;48891;49.220;6.920;2023-03-01T13:59:14;24.40;;;17.83;;
62832;SDS011;48891;49.220;6.920;2023-03-01T14:01:42;23.40;;;17.50;;
62832;SDS011;48891;49.220;6.920;2023-03-01T14:04:27;27.27;;;18.67;;
62832;SDS011;48891;49.220;6.920;2023-03-01T14:07:16;26.33;;;17.67;;
62832;SDS011;48891;49.220;6.920;2023-03-01T14:09:44;24.05;;;18.40;;
62832;SDS011;48891;49.220;6.920;2023-03-01T14:20:38;22.98;;;17.73;;
62832;SDS011;48891;49.220;6.920;2023-03-01T14:23:10;23.90;;;17.35;;
62832;SDS011;48891;49.220;6.920;2023-03-01T14:25:45;21.58;;;16.23;;
62832;SDS011;48891;49.220;6.920;2023-03-01T14:28:17;25.25;;;18.30;;
62832;SDS011;48891;49.220;6.920;2023-03-01T14:30:47;23.15;;;17.05;;
62832;SDS011;48891;49.220;6.920;2023-03-01T14:33:22;23.60;;;17.55;;
62832;SDS011;48891;49.220;6.920;2023-03-01T14:38:44;22.42;;;16.30;;
62832;SDS011;48891;49.220;6.920;2023-03-01T14:41:14;24.38;;;17.58;;
62832;SDS011;48891;49.220;6.920;2023-03-01T14:43:45;23.88;;;16.40;;
62832;SDS011;48891;49.220;6.920;2023-03-01T14:46:21;24.52;;;17.73;;
62832;SDS011;48891;49.220;6.920;2023-03-01T14:48:57;21.65;;;16.77;;
62832;SDS011;48891;49.220;6.920;2023-03-01T14:51:27;23.33;;;17.17;;
62832;SDS011;48891;49.220;6.920;2023-03-01T14:53:53;26.85;;;18.40;;
62832;SDS011;48891;49.220;6.920;2023-03-01T14:56:19;22.85;;;16.80;;
62832;SDS011;48891;49.220;6.920;2023-03-01T14:58:44;24.67;;;17.00;;
62832;SDS011;48891;49.220;6.920;2023-03-01T15:01:10;22.00;;;16.17;;
62832;SDS011;48891;49.220;6.920;2023-03-01T15:03:43;22.65;;;16.25;;
62832;SDS011;48891;49.220;6.920;2023-03-01T15:06:11;24.17;;;17.23;;
62832;SDS011;48891;49.220;6.920;2023-03-01T15:08:42;25.80;;;18.08;;
62832;SDS011;48891;49.220;6.920;2023-03-01T15:11:28;23.00;;;16.88;;
62832;SDS011;48891;49.220;6.920;2023-03-01T15:13:56;31.25;;;18.50;;
62832;SDS011;48891;49.220;6.920;2023-03-01T15:18:58;26.60;;;18.52;;
62832;SDS011;48891;49.220;6.920;2023-03-01T15:26:39;28.67;;;19.58;;
62832;SDS011;48891;49.220;6.920;2023-03-01T15:29:10;34.25;;;21.02;;
62832;SDS011;48891;49.220;6.920;2023-03-01T15:31:41;31.80;;;21.17;;
62832;SDS011;48891;49.220;6.920;2023-03-01T15:34:11;32.22;;;20.27;;
62832;SDS011;48891;49.220;6.920;2023-03-01T15:36:47;34.13;;;21.58;;
62832;SDS011;48891;49.220;6.920;2023-03-01T15:41:58;35.13;;;21.73;;
62832;SDS011;48891;49.220;6.920;2023-03-01T15:46:49;37.27;;;23.63;;
62832;SDS011;48891;49.220;6.920;2023-03-01T15:49:21;38.15;;;23.92;;
62832;SDS011;48891;49.220;6.920;2023-03-01T15:52:02;41.58;;;25.73;;
62832;SDS011;48891;49.220;6.920;2023-03-01T15:54:28;43.53;;;25.85;;
62832;SDS011;48891;49.220;6.920;2023-03-01T15:56:54;46.75;;;27.70;;
62832;SDS011;48891;49.220;6.920;2023-03-01T15:59:20;46.92;;;28.50;;
62832;SDS011;48891;49.220;6.920;2023-03-01T16:01:45;45.13;;;27.95;;
62832;SDS011;48891;49.220;6.920;2023-03-01T16:04:14;47.97;;;28.30;;
62832;SDS011;48891;49.220;6.920;2023-03-01T16:06:42;49.63;;;30.02;;
62832;SDS011;48891;49.220;6.920;2023-03-01T16:09:07;53.25;;;31.67;;
62832;SDS011;48891;49.220;6.920;2023-03-01T16:11:32;55.03;;;31.58;;
62832;SDS011;48891;49.220;6.920;2023-03-01T16:13:58;52.67;;;32.45;;